sensor_id;sensor_type;location;lat;lon;timestamp;temperature;humidity
11126;DHT22;5617;54.046;10.676;2023-02-15T00:00:38;1.20;99.90
11126;DHT22;5617;54.046;10.676;2023-02-15T00:02:46;1.20;99.90
11126;DHT22;5617;54.046;10.676;2023-02-15T00:04:54;1.10;99.90
11126;DHT22;5617;54.046;10.676;2023-02-15T00:07:02;1.10;99.90
11126;DHT22;5617;54.046;10.676;2023-02-15T00:09:11;1.10;99.90
11126;DHT22;5617;54.046;10.676;2023-02-15T00:11:19;1.10;99.90
11126;DHT22;5617;54.046;10.676;2023-02-15T00:13:45;1.10;99.90
11126;DHT22;5617;54.046;10.676;2023-02-15T00:15:53;1.10;99.90
11126;DHT22;5617;54.046;10.676;2023-02-15T00:18:01;1.10;99.90
11126;DHT22;5617;54.046;10.676;2023-02-15T00:20:09;1.10;99.90
11126;DHT22;5617;54.046;10.676;2023-02-15T00:22:17;1.10;99.90
11126;DHT22;5617;54.046;10.676;2023-02-15T00:24:26;1.10;99.90
11126;DHT22;5617;54.046;10.676;2023-02-15T00:26:34;1.10;99.90
11126;DHT22;5617;54.046;10.676;2023-02-15T00:28:42;1.10;99.90
11126;DHT22;5617;54.046;10.676;2023-02-15T00:30:50;1.10;99.90
11126;DHT22;5617;54.046;10.676;2023-02-15T00:32:58;1.00;99.90
11126;DHT22;5617;54.046;10.676;2023-02-15T00:35:06;1.00;99.90
11126;DHT22;5617;54.046;10.676;2023-02-15T00:37:31;1.10;99.90
11126;DHT22;5617;54.046;10.676;2023-02-15T00:39:40;1.10;99.90
11126;DHT22;5617;54.046;10.676;2023-02-15T00:41:47;1.00;99.90
11126;DHT22;5617;54.046;10.676;2023-02-15T00:43:55;1.10;99.90
11126;DHT22;5617;54.046;10.676;2023-02-15T00:46:03;1.00;99.90
11126;DHT22;5617;54.046;10.676;2023-02-15T00:48:30;1.00;99.90
11126;DHT22;5617;54.046;10.676;2023-02-15T00:50:38;1.00;99.90
11126;DHT22;5617;54.046;10.676;2023-02-15T00:52:46;1.00;99.90
11126;DHT22;5617;54.046;10.676;2023-02-15T00:54:55;1.00;99.90
11126;DHT22;5617;54.046;10.676;2023-02-15T00:57:02;1.00;99.90
11126;DHT22;5617;54.046;10.676;2023-02-15T00:59:10;1.00;99.90
11126;DHT22;5617;54.046;10.676;2023-02-15T01:01:19;1.00;99.90
11126;DHT22;5617;54.046;10.676;2023-02-15T01:03:27;1.00;99.90
11126;DHT22;5617;54.046;10.676;2023-02-15T01:05:35;1.00;99.90
11126;DHT22;5617;54.046;10.676;2023-02-15T01:07:42;0.90;99.90
11126;DHT22;5617;54.046;10.676;2023-02-15T01:09:50;0.90;99.90
11126;DHT22;5617;54.046;10.676;2023-02-15T01:11:58;0.90;99.90
11126;DHT22;5617;54.046;10.676;2023-02-15T01:14:06;0.90;99.90
11126;DHT22;5617;54.046;10.676;2023-02-15T01:16:13;0.90;99.90
11126;DHT22;5617;54.046;10.676;2023-02-15T01:18:22;0.90;99.90
11126;DHT22;5617;54.046;10.676;2023-02-15T01:20:29;0.90;99.90
11126;DHT22;5617;54.046;10.676;2023-02-15T01:22:37;0.80;99.90
11126;DHT22;5617;54.046;10.676;2023-02-15T01:24:45;0.80;99.90
11126;DHT22;5617;54.046;10.676;2023-02-15T01:26:52;0.70;99.90
11126;DHT22;5617;54.046;10.676;2023-02-15T01:29:01;0.70;99.90
11126;DHT22;5617;54.046;10.676;2023-02-15T01:31:11;0.70;99.90
11126;DHT22;5617;54.046;10.676;2023-02-15T01:33:18;0.70;99.90
11126;DHT22;5617;54.046;10.676;2023-02-15T01:35:26;0.70;99.90
11126;DHT22;5617;54.046;10.676;2023-02-15T01:37:34;0.70;99.90
11126;DHT22;5617;54.046;10.676;2023-02-15T01:39:42;0.70;99.90
11126;DHT22;5617;54.046;10.676;2023-02-15T01:41:49;0.60;99.90
11126;DHT22;5617;54.046;10.676;2023-02-15T01:43:59;0.60;99.90
11126;DHT22;5617;54.046;10.676;2023-02-15T01:46:09;0.60;99.90
11126;DHT22;5617;54.046;10.676;2023-02-15T01:48:21;0.60;99.90
11126;DHT22;5617;54.046;10.676;2023-02-15T01:50:34;0.60;99.90
11126;DHT22;5617;54.046;10.676;2023-02-15T01:52:46;0.60;99.90
11126;DHT22;5617;54.046;10.676;2023-02-15T01:54:56;0.60;99.90
11126;DHT22;5617;54.046;10.676;2023-02-15T01:57:07;0.60;99.90
11126;DHT22;5617;54.046;10.676;2023-02-15T01:59:19;0.60;99.90
11126;DHT22;5617;54.046;10.676;2023-02-15T02:01:28;0.50;99.90
11126;DHT22;5617;54.046;10.676;2023-02-15T02:03:41;0.50;99.90
11126;DHT22;5617;54.046;10.676;2023-02-15T02:05:50;0.50;99.90
11126;DHT22;5617;54.046;10.676;2023-02-15T02:07:59;0.50;99.90
11126;DHT22;5617;54.046;10.676;2023-02-15T02:10:10;0.50;99.90
11126;DHT22;5617;54.046;10.676;2023-02-15T02:12:18;0.50;99.90
11126;DHT22;5617;54.046;10.676;2023-02-15T02:14:27;0.50;99.90
11126;DHT22;5617;54.046;10.676;2023-02-15T02:16:42;0.50;99.90
11126;DHT22;5617;54.046;10.676;2023-02-15T02:19:07;0.50;99.90
11126;DHT22;5617;54.046;10.676;2023-02-15T02:21:41;0.50;99.90
11126;DHT22;5617;54.046;10.676;2023-02-15T02:24:09;0.50;99.90
11126;DHT22;5617;54.046;10.676;2023-02-15T02:29:32;0.50;99.90
11126;DHT22;5617;54.046;10.676;2023-02-15T02:32:00;0.50;99.90
11126;DHT22;5617;54.046;10.676;2023-02-15T02:34:16;0.40;99.90
11126;DHT22;5617;54.046;10.676;2023-02-15T02:36:31;0.40;99.90
11126;DHT22;5617;54.046;10.676;2023-02-15T02:38:52;0.40;99.90
11126;DHT22;5617;54.046;10.676;2023-02-15T02:41:07;0.40;99.90
11126;DHT22;5617;54.046;10.676;2023-02-15T02:43:20;0.40;99.90
11126;DHT22;5617;54.046;10.676;2023-02-15T02:45:32;0.40;99.90
11126;DHT22;5617;54.046;10.676;2023-02-15T02:47:45;0.40;99.90
11126;DHT22;5617;54.046;10.676;2023-02-15T02:50:00;0.40;99.90
11126;DHT22;5617;54.046;10.676;2023-02-15T02:52:37;0.40;99.90
11126;DHT22;5617;54.046;10.676;2023-02-15T02:54:45;0.40;99.90
11126;DHT22;5617;54.046;10.676;2023-02-15T02:56:55;0.50;99.90
11126;DHT22;5617;54.046;10.676;2023-02-15T02:59:07;0.50;99.90
11126;DHT22;5617;54.046;10.676;2023-02-15T03:01:22;0.50;99.90
11126;DHT22;5617;54.046;10.676;2023-02-15T03:03:35;0.50;99.90
11126;DHT22;5617;54.046;10.676;2023-02-15T03:05:48;0.50;99.90
11126;DHT22;5617;54.046;10.676;2023-02-15T03:07:57;0.50;99.90
11126;DHT22;5617;54.046;10.676;2023-02-15T03:10:08;0.50;99.90
11126;DHT22;5617;54.046;10.676;2023-02-15T03:12:19;0.50;99.90
11126;DHT22;5617;54.046;10.676;2023-02-15T03:14:28;0.50;99.90
11126;DHT22;5617;54.046;10.676;2023-02-15T03:16:36;0.50;99.90
11126;DHT22;5617;54.046;10.676;2023-02-15T03:18:46;0.50;99.90
11126;DHT22;5617;54.046;10.676;2023-02-15T03:21:01;0.50;99.90
11126;DHT22;5617;54.046;10.676;2023-02-15T03:23:13;0.60;99.90
11126;DHT22;5617;54.046;10.676;2023-02-15T03:25:25;0.60;99.90
11126;DHT22;5617;54.046;10.676;2023-02-15T03:27:37;0.60;99.90
11126;DHT22;5617;54.046;10.676;2023-02-15T03:29:46;0.60;99.90
11126;DHT22;5617;54.046;10.676;2023-02-15T03:31:56;0.70;99.90
11126;DHT22;5617;54.046;10.676;2023-02-15T03:34:08;0.70;99.90
11126;DHT22;5617;54.046;10.676;2023-02-15T03:36:21;0.70;99.90
11126;DHT22;5617;54.046;10.676;2023-02-15T03:38:35;0.70;99.90
11126;DHT22;5617;54.046;10.676;2023-02-15T03:40:45;0.80;99.90
11126;DHT22;5617;54.046;10.676;2023-02-15T03:43:15;0.80;99.90
11126;DHT22;5617;54.046;10.676;2023-02-15T03:45:25;0.90;99.90
11126;DHT22;5617;54.046;10.676;2023-02-15T03:47:36;0.90;99.90
11126;DHT22;5617;54.046;10.676;2023-02-15T03:49:48;1.00;99.90
11126;DHT22;5617;54.046;10.676;2023-02-15T03:52:00;1.00;99.90
11126;DHT22;5617;54.046;10.676;2023-02-15T03:54:11;1.10;99.90
11126;DHT22;5617;54.046;10.676;2023-02-15T03:56:19;1.10;99.90
11126;DHT22;5617;54.046;10.676;2023-02-15T03:58:27;1.20;99.90
11126;DHT22;5617;54.046;10.676;2023-02-15T04:00:57;1.30;99.90
11126;DHT22;5617;54.046;10.676;2023-02-15T04:03:27;1.30;99.90
11126;DHT22;5617;54.046;10.676;2023-02-15T04:05:39;1.40;99.90
11126;DHT22;5617;54.046;10.676;2023-02-15T04:07:48;1.50;99.90
11126;DHT22;5617;54.046;10.676;2023-02-15T04:09:56;1.50;99.90
11126;DHT22;5617;54.046;10.676;2023-02-15T04:12:21;1.60;99.90
11126;DHT22;5617;54.046;10.676;2023-02-15T04:14:29;1.70;99.90
11126;DHT22;5617;54.046;10.676;2023-02-15T04:16:54;1.70;99.90
11126;DHT22;5617;54.046;10.676;2023-02-15T04:19:01;1.80;99.90
11126;DHT22;5617;54.046;10.676;2023-02-15T04:21:28;1.90;99.90
11126;DHT22;5617;54.046;10.676;2023-02-15T04:23:54;1.90;99.90
11126;DHT22;5617;54.046;10.676;2023-02-15T04:26:19;2.00;99.90
11126;DHT22;5617;54.046;10.676;2023-02-15T04:28:27;2.00;99.90
11126;DHT22;5617;54.046;10.676;2023-02-15T04:30:34;2.00;99.90
11126;DHT22;5617;54.046;10.676;2023-02-15T04:32:42;2.00;99.90
11126;DHT22;5617;54.046;10.676;2023-02-15T04:34:50;2.10;99.90
11126;DHT22;5617;54.046;10.676;2023-02-15T04:36:57;2.10;99.90
11126;DHT22;5617;54.046;10.676;2023-02-15T04:39:07;2.10;99.90
11126;DHT22;5617;54.046;10.676;2023-02-15T04:41:14;2.20;99.90
11126;DHT22;5617;54.046;10.676;2023-02-15T04:43:22;2.10;99.90
11126;DHT22;5617;54.046;10.676;2023-02-15T04:45:29;2.10;99.90
11126;DHT22;5617;54.046;10.676;2023-02-15T04:47:37;2.10;99.90
11126;DHT22;5617;54.046;10.676;2023-02-15T04:49:45;2.20;99.90
11126;DHT22;5617;54.046;10.676;2023-02-15T04:51:52;2.20;99.90
11126;DHT22;5617;54.046;10.676;2023-02-15T04:54:00;2.20;99.90
11126;DHT22;5617;54.046;10.676;2023-02-15T04:56:08;2.20;99.90
11126;DHT22;5617;54.046;10.676;2023-02-15T04:58:16;2.20;99.90
11126;DHT22;5617;54.046;10.676;2023-02-15T05:00:24;2.20;99.90
11126;DHT22;5617;54.046;10.676;2023-02-15T05:02:31;2.20;99.90
11126;DHT22;5617;54.046;10.676;2023-02-15T05:04:39;2.20;99.90
11126;DHT22;5617;54.046;10.676;2023-02-15T05:06:46;2.20;99.90
11126;DHT22;5617;54.046;10.676;2023-02-15T05:08:54;2.20;99.90
11126;DHT22;5617;54.046;10.676;2023-02-15T05:11:01;2.20;99.90
11126;DHT22;5617;54.046;10.676;2023-02-15T05:13:10;2.20;99.90
11126;DHT22;5617;54.046;10.676;2023-02-15T05:15:18;2.20;99.90
11126;DHT22;5617;54.046;10.676;2023-02-15T05:17:26;2.10;99.90
11126;DHT22;5617;54.046;10.676;2023-02-15T05:19:34;2.10;99.90
11126;DHT22;5617;54.046;10.676;2023-02-15T05:21:41;2.10;99.90
11126;DHT22;5617;54.046;10.676;2023-02-15T05:23:49;2.10;99.90
11126;DHT22;5617;54.046;10.676;2023-02-15T05:25:57;2.10;99.90
11126;DHT22;5617;54.046;10.676;2023-02-15T05:28:24;2.10;99.90
11126;DHT22;5617;54.046;10.676;2023-02-15T05:30:31;2.00;99.90
11126;DHT22;5617;54.046;10.676;2023-02-15T05:32:39;1.90;99.90
11126;DHT22;5617;54.046;10.676;2023-02-15T05:34:46;1.90;99.90
11126;DHT22;5617;54.046;10.676;2023-02-15T05:36:54;1.90;99.90
11126;DHT22;5617;54.046;10.676;2023-02-15T05:39:02;1.90;99.90
11126;DHT22;5617;54.046;10.676;2023-02-15T05:41:12;1.80;99.90
11126;DHT22;5617;54.046;10.676;2023-02-15T05:43:19;1.80;99.90
11126;DHT22;5617;54.046;10.676;2023-02-15T05:45:28;1.80;99.90
11126;DHT22;5617;54.046;10.676;2023-02-15T05:47:36;1.80;99.90
11126;DHT22;5617;54.046;10.676;2023-02-15T05:49:44;1.70;99.90
11126;DHT22;5617;54.046;10.676;2023-02-15T05:51:51;1.80;99.90
11126;DHT22;5617;54.046;10.676;2023-02-15T05:53:59;1.70;99.90
11126;DHT22;5617;54.046;10.676;2023-02-15T05:56:08;1.80;99.90
11126;DHT22;5617;54.046;10.676;2023-02-15T05:58:16;1.80;99.90
11126;DHT22;5617;54.046;10.676;2023-02-15T06:00:24;1.80;99.90
11126;DHT22;5617;54.046;10.676;2023-02-15T06:02:35;1.80;99.90
11126;DHT22;5617;54.046;10.676;2023-02-15T06:04:43;1.80;99.90
11126;DHT22;5617;54.046;10.676;2023-02-15T06:06:50;1.80;99.90
11126;DHT22;5617;54.046;10.676;2023-02-15T06:08:58;1.80;99.90
11126;DHT22;5617;54.046;10.676;2023-02-15T06:11:06;1.70;99.90
11126;DHT22;5617;54.046;10.676;2023-02-15T06:13:14;1.70;99.90
11126;DHT22;5617;54.046;10.676;2023-02-15T06:15:22;1.70;99.90
11126;DHT22;5617;54.046;10.676;2023-02-15T06:17:29;1.70;99.90
11126;DHT22;5617;54.046;10.676;2023-02-15T06:19:38;1.70;99.90
11126;DHT22;5617;54.046;10.676;2023-02-15T06:21:46;1.70;99.90
11126;DHT22;5617;54.046;10.676;2023-02-15T06:23:53;1.70;99.90
11126;DHT22;5617;54.046;10.676;2023-02-15T06:26:01;1.70;99.90
11126;DHT22;5617;54.046;10.676;2023-02-15T06:28:09;1.70;99.90
11126;DHT22;5617;54.046;10.676;2023-02-15T06:30:17;1.70;99.90
11126;DHT22;5617;54.046;10.676;2023-02-15T06:32:24;1.70;99.90
11126;DHT22;5617;54.046;10.676;2023-02-15T06:34:32;1.70;99.90
11126;DHT22;5617;54.046;10.676;2023-02-15T06:36:41;1.70;99.90
11126;DHT22;5617;54.046;10.676;2023-02-15T06:38:48;1.70;99.90
11126;DHT22;5617;54.046;10.676;2023-02-15T06:40:56;1.70;99.90
11126;DHT22;5617;54.046;10.676;2023-02-15T06:43:04;1.70;99.90
11126;DHT22;5617;54.046;10.676;2023-02-15T06:45:13;1.70;99.90
11126;DHT22;5617;54.046;10.676;2023-02-15T06:47:21;1.70;99.90
11126;DHT22;5617;54.046;10.676;2023-02-15T06:49:29;1.80;99.90
11126;DHT22;5617;54.046;10.676;2023-02-15T06:51:37;1.80;99.90
11126;DHT22;5617;54.046;10.676;2023-02-15T06:53:47;1.70;99.90
11126;DHT22;5617;54.046;10.676;2023-02-15T06:56:00;1.70;99.90
11126;DHT22;5617;54.046;10.676;2023-02-15T06:58:09;1.70;99.90
11126;DHT22;5617;54.046;10.676;2023-02-15T07:00:17;1.70;99.90
11126;DHT22;5617;54.046;10.676;2023-02-15T07:02:25;1.70;99.90
11126;DHT22;5617;54.046;10.676;2023-02-15T07:04:33;1.70;99.90
11126;DHT22;5617;54.046;10.676;2023-02-15T07:06:41;1.70;99.90
11126;DHT22;5617;54.046;10.676;2023-02-15T07:08:51;1.70;99.90
11126;DHT22;5617;54.046;10.676;2023-02-15T07:10:59;1.70;99.90
11126;DHT22;5617;54.046;10.676;2023-02-15T07:13:26;1.70;99.90
11126;DHT22;5617;54.046;10.676;2023-02-15T07:15:33;1.70;99.90
11126;DHT22;5617;54.046;10.676;2023-02-15T07:17:41;1.70;99.90
11126;DHT22;5617;54.046;10.676;2023-02-15T07:19:49;1.70;99.90
11126;DHT22;5617;54.046;10.676;2023-02-15T07:21:56;1.70;99.90
11126;DHT22;5617;54.046;10.676;2023-02-15T07:24:06;1.70;99.90
11126;DHT22;5617;54.046;10.676;2023-02-15T07:26:13;1.70;99.90
11126;DHT22;5617;54.046;10.676;2023-02-15T07:28:21;1.70;99.90
11126;DHT22;5617;54.046;10.676;2023-02-15T07:30:29;1.80;99.90
11126;DHT22;5617;54.046;10.676;2023-02-15T07:32:37;1.80;99.90
11126;DHT22;5617;54.046;10.676;2023-02-15T07:35:05;1.80;99.90
11126;DHT22;5617;54.046;10.676;2023-02-15T07:37:13;1.80;99.90
11126;DHT22;5617;54.046;10.676;2023-02-15T07:39:22;1.80;99.90
11126;DHT22;5617;54.046;10.676;2023-02-15T07:41:29;1.80;99.90
11126;DHT22;5617;54.046;10.676;2023-02-15T07:43:39;1.90;99.90
11126;DHT22;5617;54.046;10.676;2023-02-15T07:45:47;1.90;99.90
11126;DHT22;5617;54.046;10.676;2023-02-15T07:47:55;1.90;99.90
11126;DHT22;5617;54.046;10.676;2023-02-15T07:50:03;1.90;99.90
11126;DHT22;5617;54.046;10.676;2023-02-15T07:52:10;1.80;99.90
11126;DHT22;5617;54.046;10.676;2023-02-15T07:54:18;1.80;99.90
11126;DHT22;5617;54.046;10.676;2023-02-15T07:56:27;1.90;99.90
11126;DHT22;5617;54.046;10.676;2023-02-15T07:58:35;1.80;99.90
11126;DHT22;5617;54.046;10.676;2023-02-15T08:00:57;1.80;99.90
11126;DHT22;5617;54.046;10.676;2023-02-15T08:03:08;1.80;99.90
11126;DHT22;5617;54.046;10.676;2023-02-15T08:05:21;1.80;99.90
11126;DHT22;5617;54.046;10.676;2023-02-15T08:07:29;1.80;99.90
11126;DHT22;5617;54.046;10.676;2023-02-15T08:09:37;1.80;99.90
11126;DHT22;5617;54.046;10.676;2023-02-15T08:11:47;1.80;99.90
11126;DHT22;5617;54.046;10.676;2023-02-15T08:13:57;1.80;99.90
11126;DHT22;5617;54.046;10.676;2023-02-15T08:16:06;1.80;99.90
11126;DHT22;5617;54.046;10.676;2023-02-15T08:18:15;1.90;99.90
11126;DHT22;5617;54.046;10.676;2023-02-15T08:20:23;1.90;99.90
11126;DHT22;5617;54.046;10.676;2023-02-15T08:22:30;1.90;99.90
11126;DHT22;5617;54.046;10.676;2023-02-15T08:24:38;1.90;99.90
11126;DHT22;5617;54.046;10.676;2023-02-15T08:26:48;2.00;99.90
11126;DHT22;5617;54.046;10.676;2023-02-15T08:28:56;1.90;99.90
11126;DHT22;5617;54.046;10.676;2023-02-15T08:31:05;1.90;99.90
11126;DHT22;5617;54.046;10.676;2023-02-15T08:33:12;1.90;99.90
11126;DHT22;5617;54.046;10.676;2023-02-15T08:35:20;2.00;99.90
11126;DHT22;5617;54.046;10.676;2023-02-15T08:37:28;2.00;99.90
11126;DHT22;5617;54.046;10.676;2023-02-15T08:39:35;2.00;99.90
11126;DHT22;5617;54.046;10.676;2023-02-15T08:41:44;2.00;99.90
11126;DHT22;5617;54.046;10.676;2023-02-15T08:43:54;2.00;99.90
11126;DHT22;5617;54.046;10.676;2023-02-15T08:46:02;2.00;99.90
11126;DHT22;5617;54.046;10.676;2023-02-15T08:48:10;2.00;99.90
11126;DHT22;5617;54.046;10.676;2023-02-15T08:50:18;2.00;99.90
11126;DHT22;5617;54.046;10.676;2023-02-15T08:52:26;2.10;99.90
11126;DHT22;5617;54.046;10.676;2023-02-15T08:54:33;2.10;99.90
11126;DHT22;5617;54.046;10.676;2023-02-15T08:56:42;2.10;99.90
11126;DHT22;5617;54.046;10.676;2023-02-15T08:58:50;2.10;99.90
11126;DHT22;5617;54.046;10.676;2023-02-15T09:00:59;2.10;99.90
11126;DHT22;5617;54.046;10.676;2023-02-15T09:03:08;2.20;99.90
11126;DHT22;5617;54.046;10.676;2023-02-15T09:05:16;2.20;99.90
11126;DHT22;5617;54.046;10.676;2023-02-15T09:07:23;2.20;99.90
11126;DHT22;5617;54.046;10.676;2023-02-15T09:09:31;2.20;99.90
11126;DHT22;5617;54.046;10.676;2023-02-15T09:11:41;2.20;99.90
11126;DHT22;5617;54.046;10.676;2023-02-15T09:13:51;2.20;99.90
11126;DHT22;5617;54.046;10.676;2023-02-15T09:16:02;2.30;99.90
11126;DHT22;5617;54.046;10.676;2023-02-15T09:18:10;2.30;99.90
11126;DHT22;5617;54.046;10.676;2023-02-15T09:20:23;2.30;99.90
11126;DHT22;5617;54.046;10.676;2023-02-15T09:22:30;2.30;99.90
11126;DHT22;5617;54.046;10.676;2023-02-15T09:24:38;2.40;99.90
11126;DHT22;5617;54.046;10.676;2023-02-15T09:26:47;2.40;99.90
11126;DHT22;5617;54.046;10.676;2023-02-15T09:28:56;2.40;99.90
11126;DHT22;5617;54.046;10.676;2023-02-15T09:31:08;2.40;99.90
11126;DHT22;5617;54.046;10.676;2023-02-15T09:33:16;2.40;99.90
11126;DHT22;5617;54.046;10.676;2023-02-15T09:35:24;2.40;99.90
11126;DHT22;5617;54.046;10.676;2023-02-15T09:37:31;2.40;99.90
11126;DHT22;5617;54.046;10.676;2023-02-15T09:39:41;2.40;99.90
11126;DHT22;5617;54.046;10.676;2023-02-15T09:42:11;2.40;99.90
11126;DHT22;5617;54.046;10.676;2023-02-15T09:44:32;2.40;99.90
11126;DHT22;5617;54.046;10.676;2023-02-15T09:46:54;2.40;99.90
11126;DHT22;5617;54.046;10.676;2023-02-15T09:49:10;2.40;99.90
11126;DHT22;5617;54.046;10.676;2023-02-15T09:51:50;2.50;99.90
11126;DHT22;5617;54.046;10.676;2023-02-15T09:54:17;2.60;99.90
11126;DHT22;5617;54.046;10.676;2023-02-15T09:56:33;2.60;99.90
11126;DHT22;5617;54.046;10.676;2023-02-15T09:58:51;2.60;99.90
11126;DHT22;5617;54.046;10.676;2023-02-15T10:01:06;2.60;99.90
11126;DHT22;5617;54.046;10.676;2023-02-15T10:03:42;2.60;99.90
11126;DHT22;5617;54.046;10.676;2023-02-15T10:06:05;2.60;99.90
11126;DHT22;5617;54.046;10.676;2023-02-15T10:08:51;2.60;99.90
11126;DHT22;5617;54.046;10.676;2023-02-15T10:11:09;2.70;99.90
11126;DHT22;5617;54.046;10.676;2023-02-15T10:13:43;2.70;99.90
11126;DHT22;5617;54.046;10.676;2023-02-15T10:16:04;2.70;99.90
11126;DHT22;5617;54.046;10.676;2023-02-15T10:18:36;2.80;99.90
11126;DHT22;5617;54.046;10.676;2023-02-15T10:20:54;2.70;99.90
11126;DHT22;5617;54.046;10.676;2023-02-15T10:23:17;2.70;99.90
11126;DHT22;5617;54.046;10.676;2023-02-15T10:25:33;2.80;99.90
11126;DHT22;5617;54.046;10.676;2023-02-15T10:27:46;2.80;99.90
11126;DHT22;5617;54.046;10.676;2023-02-15T10:30:03;2.80;99.90
11126;DHT22;5617;54.046;10.676;2023-02-15T10:32:22;2.90;99.90
11126;DHT22;5617;54.046;10.676;2023-02-15T10:34:36;2.90;99.90
11126;DHT22;5617;54.046;10.676;2023-02-15T10:37:17;2.90;99.90
11126;DHT22;5617;54.046;10.676;2023-02-15T10:39:34;3.00;99.90
11126;DHT22;5617;54.046;10.676;2023-02-15T10:41:49;3.10;99.90
11126;DHT22;5617;54.046;10.676;2023-02-15T10:44:11;3.10;99.90
11126;DHT22;5617;54.046;10.676;2023-02-15T10:46:36;3.10;99.90
11126;DHT22;5617;54.046;10.676;2023-02-15T10:49:04;3.10;99.90
11126;DHT22;5617;54.046;10.676;2023-02-15T10:51:21;3.20;99.90
11126;DHT22;5617;54.046;10.676;2023-02-15T10:53:55;3.20;99.90
11126;DHT22;5617;54.046;10.676;2023-02-15T10:56:15;3.20;99.90
11126;DHT22;5617;54.046;10.676;2023-02-15T10:58:35;3.20;99.90
11126;DHT22;5617;54.046;10.676;2023-02-15T11:00:49;3.30;99.90
11126;DHT22;5617;54.046;10.676;2023-02-15T11:03:35;3.30;99.90
11126;DHT22;5617;54.046;10.676;2023-02-15T11:05:48;3.40;99.90
11126;DHT22;5617;54.046;10.676;2023-02-15T11:08:04;3.40;99.90
11126;DHT22;5617;54.046;10.676;2023-02-15T11:10:27;3.40;99.90
11126;DHT22;5617;54.046;10.676;2023-02-15T11:12:36;3.50;99.90
11126;DHT22;5617;54.046;10.676;2023-02-15T11:14:48;3.60;99.90
11126;DHT22;5617;54.046;10.676;2023-02-15T11:17:02;3.60;99.90
11126;DHT22;5617;54.046;10.676;2023-02-15T11:19:18;3.50;99.90
11126;DHT22;5617;54.046;10.676;2023-02-15T11:21:29;3.50;99.90
11126;DHT22;5617;54.046;10.676;2023-02-15T11:23:42;3.50;99.90
11126;DHT22;5617;54.046;10.676;2023-02-15T11:25:56;3.60;99.90
11126;DHT22;5617;54.046;10.676;2023-02-15T11:28:11;3.60;99.90
11126;DHT22;5617;54.046;10.676;2023-02-15T11:30:25;3.70;99.90
11126;DHT22;5617;54.046;10.676;2023-02-15T11:32:35;3.70;99.90
11126;DHT22;5617;54.046;10.676;2023-02-15T11:34:49;3.70;99.90
11126;DHT22;5617;54.046;10.676;2023-02-15T11:37:00;3.70;99.90
11126;DHT22;5617;54.046;10.676;2023-02-15T11:39:11;3.70;99.90
11126;DHT22;5617;54.046;10.676;2023-02-15T11:41:24;3.80;99.90
11126;DHT22;5617;54.046;10.676;2023-02-15T11:43:37;3.90;99.90
11126;DHT22;5617;54.046;10.676;2023-02-15T11:45:47;3.90;99.90
11126;DHT22;5617;54.046;10.676;2023-02-15T11:47:56;3.90;99.90
11126;DHT22;5617;54.046;10.676;2023-02-15T11:50:09;4.00;99.90
11126;DHT22;5617;54.046;10.676;2023-02-15T11:52:18;4.00;99.90
11126;DHT22;5617;54.046;10.676;2023-02-15T11:54:29;4.20;99.90
11126;DHT22;5617;54.046;10.676;2023-02-15T11:56:39;4.20;99.90
11126;DHT22;5617;54.046;10.676;2023-02-15T11:58:50;4.30;99.90
11126;DHT22;5617;54.046;10.676;2023-02-15T12:01:04;4.30;99.90
11126;DHT22;5617;54.046;10.676;2023-02-15T12:03:19;4.40;99.90
11126;DHT22;5617;54.046;10.676;2023-02-15T12:05:29;4.40;99.90
11126;DHT22;5617;54.046;10.676;2023-02-15T12:07:41;4.50;99.90
11126;DHT22;5617;54.046;10.676;2023-02-15T12:09:55;4.60;99.90
11126;DHT22;5617;54.046;10.676;2023-02-15T12:12:23;4.60;99.90
11126;DHT22;5617;54.046;10.676;2023-02-15T12:14:46;4.60;99.90
11126;DHT22;5617;54.046;10.676;2023-02-15T12:16:55;4.60;99.90
11126;DHT22;5617;54.046;10.676;2023-02-15T12:19:03;4.60;99.90
11126;DHT22;5617;54.046;10.676;2023-02-15T12:21:13;4.70;99.90
11126;DHT22;5617;54.046;10.676;2023-02-15T12:23:21;4.70;99.90
11126;DHT22;5617;54.046;10.676;2023-02-15T12:25:35;4.70;99.90
11126;DHT22;5617;54.046;10.676;2023-02-15T12:27:44;4.70;99.90
11126;DHT22;5617;54.046;10.676;2023-02-15T12:29:56;4.70;99.90
11126;DHT22;5617;54.046;10.676;2023-02-15T12:32:08;4.80;99.90
11126;DHT22;5617;54.046;10.676;2023-02-15T12:34:22;4.80;99.90
11126;DHT22;5617;54.046;10.676;2023-02-15T12:36:32;4.80;99.90
11126;DHT22;5617;54.046;10.676;2023-02-15T12:38:40;4.80;99.90
11126;DHT22;5617;54.046;10.676;2023-02-15T12:40:58;4.80;99.90
11126;DHT22;5617;54.046;10.676;2023-02-15T12:43:25;4.90;99.90
11126;DHT22;5617;54.046;10.676;2023-02-15T12:45:34;4.90;99.90
11126;DHT22;5617;54.046;10.676;2023-02-15T12:47:42;4.80;99.90
11126;DHT22;5617;54.046;10.676;2023-02-15T12:50:10;4.80;99.90
11126;DHT22;5617;54.046;10.676;2023-02-15T12:52:25;4.80;99.90
11126;DHT22;5617;54.046;10.676;2023-02-15T12:54:35;4.90;99.90
11126;DHT22;5617;54.046;10.676;2023-02-15T12:56:44;4.90;99.90
11126;DHT22;5617;54.046;10.676;2023-02-15T12:59:04;4.90;99.90
11126;DHT22;5617;54.046;10.676;2023-02-15T13:01:16;4.90;99.90
11126;DHT22;5617;54.046;10.676;2023-02-15T13:03:24;5.00;99.90
11126;DHT22;5617;54.046;10.676;2023-02-15T13:05:35;5.10;99.90
11126;DHT22;5617;54.046;10.676;2023-02-15T13:07:50;5.10;99.90
11126;DHT22;5617;54.046;10.676;2023-02-15T13:09:58;5.20;99.90
11126;DHT22;5617;54.046;10.676;2023-02-15T13:12:18;5.10;99.90
11126;DHT22;5617;54.046;10.676;2023-02-15T13:14:31;5.20;99.90
11126;DHT22;5617;54.046;10.676;2023-02-15T13:16:39;5.20;99.90
11126;DHT22;5617;54.046;10.676;2023-02-15T13:18:51;5.30;99.90
11126;DHT22;5617;54.046;10.676;2023-02-15T13:21:06;5.30;99.90
11126;DHT22;5617;54.046;10.676;2023-02-15T13:23:24;5.30;99.90
11126;DHT22;5617;54.046;10.676;2023-02-15T13:25:42;5.30;99.90
11126;DHT22;5617;54.046;10.676;2023-02-15T13:27:56;5.30;99.90
11126;DHT22;5617;54.046;10.676;2023-02-15T13:30:17;5.30;99.90
11126;DHT22;5617;54.046;10.676;2023-02-15T13:32:30;5.30;99.90
11126;DHT22;5617;54.046;10.676;2023-02-15T13:34:39;5.30;99.90
11126;DHT22;5617;54.046;10.676;2023-02-15T13:36:51;5.30;99.90
11126;DHT22;5617;54.046;10.676;2023-02-15T13:39:09;5.30;99.90
11126;DHT22;5617;54.046;10.676;2023-02-15T13:41:24;5.30;99.90
11126;DHT22;5617;54.046;10.676;2023-02-15T13:43:40;5.30;99.90
11126;DHT22;5617;54.046;10.676;2023-02-15T13:46:01;5.30;99.90
11126;DHT22;5617;54.046;10.676;2023-02-15T13:48:16;5.30;99.90
11126;DHT22;5617;54.046;10.676;2023-02-15T13:50:39;5.20;99.90
11126;DHT22;5617;54.046;10.676;2023-02-15T13:53:00;5.20;99.90
11126;DHT22;5617;54.046;10.676;2023-02-15T13:55:27;5.20;99.90
11126;DHT22;5617;54.046;10.676;2023-02-15T13:57:51;5.20;99.90
11126;DHT22;5617;54.046;10.676;2023-02-15T14:00:14;5.30;99.90
11126;DHT22;5617;54.046;10.676;2023-02-15T14:05:15;5.30;99.90
11126;DHT22;5617;54.046;10.676;2023-02-15T14:07:41;5.30;99.90
11126;DHT22;5617;54.046;10.676;2023-02-15T14:10:10;5.30;99.90
11126;DHT22;5617;54.046;10.676;2023-02-15T14:12:46;5.30;99.90
11126;DHT22;5617;54.046;10.676;2023-02-15T14:17:47;5.30;99.90